Robijn — PBEJ — position and weather

sailwx.info

Track history (hours):
 
Tides and Currents Weather Stations Pressure Air Temp Water Temp Dewpoint Dewpoint Depression Visibility Wind Speed Wind Dir Waves Ship Positions

Robijn

Last reported at 2016-Sep-24 03:33 UTC. Time now 2016-Sep-25 05:30 UTC.
Position N 43°46' W 006°04'.

Length 90 m; draft 3.9 m.

Type: Cargo ship. MMSI: 245909000.

Date/timePositionNaut miles runAvg speedWind from/ knotsBaromVisibWave heightAir tempDewpointWater temp
2016-Sep-24 03:33N 43°46' W 006°04'10 9.9
2016-Sep-24 02:33N 43°45' W 005°50'10 9.9
2016-Sep-24 01:32N 43°44' W 005°37'11 9.6
2016-Sep-24 00:24N 43°42' W 005°22'49 9.5
2016-Sep-23 19:13N 43°37' W 004°14'101 2.3
2016-Sep-21 23:33N 43°22' W 001°57'1610.4
2016-Sep-21 22:03N 43°36' W 002°09'379 8.7
2016-Sep-20 02:33N 49°51' W 003°25'10710.3
2016-Sep-19 16:10N 50°24' W 000°45'2213.4
2016-Sep-19 14:33N 50°30' W 000°12'1211.8
2016-Sep-19 13:33N 50°33' E 000°06'4310.1
2016-Sep-19 09:19N 50°53' E 001°06'2413.8
2016-Sep-19 07:33N 51°08' E 001°36'1312.6
2016-Sep-19 06:34N 51°18' E 001°48'29 9.5
2016-Sep-19 03:31N 51°41' E 002°16'8811.1
2016-Sep-18 19:32N 52°49' E 003°48'9210.2
2016-Sep-18 10:34N 53°43' E 005°52'10 9.9
2016-Sep-18 09:33N 53°46' E 006°08'7610.9
2016-Sep-18 02:33N 54°01' E 008°15'1212.5
2016-Sep-18 01:33N 53°58' E 008°36'9 9.3
2016-Sep-18 00:33N 53°51' E 008°46'14 6.8
2016-Sep-17 22:33N 53°54' E 009°09'7 7.3
2016-Sep-17 21:34N 53°59' E 009°17'38 4.7
2016-Sep-17 13:34N 54°22' E 010°08'1 1.1
2016-Sep-17 12:34N 54°22' E 010°10'2010.0
2016-Sep-17 10:34N 54°34' E 010°37'1111.0
2016-Sep-17 09:34N 54°36' E 010°55'1211.9
2016-Sep-17 08:33N 54°35' E 011°16'1212.0
2016-Sep-17 07:34N 54°30' E 011°35'2110.4
2016-Sep-17 05:33N 54°30' E 012°11'1110.8
2016-Sep-17 04:33N 54°39' E 012°20'4310.7
2016-Sep-17 00:32N 54°57' E 013°28'7310.4
2016-Sep-16 17:33N 55°39' E 015°12'14610.4
2016-Sep-16 03:30N 57°37' E 017°48'1410.9
2016-Sep-16 02:11N 57°50' E 018°00'1810.9
2016-Sep-16 00:30N 58°06' E 018°17'  
Track history (hours):
 
Tides and Currents Weather Stations Pressure Air Temp Water Temp Dewpoint Dewpoint Depression Visibility Wind Speed Wind Dir Waves Ship Positions

Robijn

Last reported at 2016-Sep-24 03:33 UTC. Time now 2016-Sep-25 05:30 UTC.
Position N 43°46' W 006°04'.

Length 90 m; draft 3.9 m.

Type: Cargo ship. MMSI: 245909000.

Date/timePositionNaut miles runAvg speedWind from/ knotsBaromVisibWave heightAir tempDewpointWater temp
2016-Sep-24 03:33N 43°46' W 006°04'10 9.9
2016-Sep-24 02:33N 43°45' W 005°50'10 9.9
2016-Sep-24 01:32N 43°44' W 005°37'11 9.6
2016-Sep-24 00:24N 43°42' W 005°22'49 9.5
2016-Sep-23 19:13N 43°37' W 004°14'101 2.3
2016-Sep-21 23:33N 43°22' W 001°57'1610.4
2016-Sep-21 22:03N 43°36' W 002°09'379 8.7
2016-Sep-20 02:33N 49°51' W 003°25'10710.3
2016-Sep-19 16:10N 50°24' W 000°45'2213.4
2016-Sep-19 14:33N 50°30' W 000°12'1211.8
2016-Sep-19 13:33N 50°33' E 000°06'4310.1
2016-Sep-19 09:19N 50°53' E 001°06'2413.8
2016-Sep-19 07:33N 51°08' E 001°36'1312.6
2016-Sep-19 06:34N 51°18' E 001°48'29 9.5
2016-Sep-19 03:31N 51°41' E 002°16'8811.1
2016-Sep-18 19:32N 52°49' E 003°48'9210.2
2016-Sep-18 10:34N 53°43' E 005°52'10 9.9
2016-Sep-18 09:33N 53°46' E 006°08'7610.9
2016-Sep-18 02:33N 54°01' E 008°15'1212.5
2016-Sep-18 01:33N 53°58' E 008°36'9 9.3
2016-Sep-18 00:33N 53°51' E 008°46'14 6.8
2016-Sep-17 22:33N 53°54' E 009°09'7 7.3
2016-Sep-17 21:34N 53°59' E 009°17'38 4.7
2016-Sep-17 13:34N 54°22' E 010°08'1 1.1
2016-Sep-17 12:34N 54°22' E 010°10'2010.0
2016-Sep-17 10:34N 54°34' E 010°37'1111.0
2016-Sep-17 09:34N 54°36' E 010°55'1211.9
2016-Sep-17 08:33N 54°35' E 011°16'1212.0
2016-Sep-17 07:34N 54°30' E 011°35'2110.4
2016-Sep-17 05:33N 54°30' E 012°11'1110.8
2016-Sep-17 04:33N 54°39' E 012°20'4310.7
2016-Sep-17 00:32N 54°57' E 013°28'7310.4
2016-Sep-16 17:33N 55°39' E 015°12'14610.4
2016-Sep-16 03:30N 57°37' E 017°48'1410.9
2016-Sep-16 02:11N 57°50' E 018°00'1810.9
2016-Sep-16 00:30N 58°06' E 018°17'  

Dump ship's entire track history